Selma, VA (24474)

10:02 PM EST on December 05, 2016 (GMT -0500)
Public Works Admin | | Change Station

Elev 1076 ft 37.82 °N, 79.82 °W | Updated 34 seconds ago

Clear
Clear
42.8 °F
Feels Like 43 °F
N
0.0
Wind Variable Wind from NW
Gusts 0.0 mph

Today
High -- | Low -- °F
--% Chance of Precip.
Yesterday
High -- | Low -- °F
Precip. -- in
Pressure 30.03 in
Visibility 10.0 miles
Clouds Clear
Windchill 43 °F
Dew Point 41 °F
Humidity 92%
Rainfall 0.13 in
Snow Depth Not available.
7:20 AM 5:00 PM
Waxing Crescent, 37% visible
METAR KLWB 060255Z AUTO 00000KT 10SM CLR 03/01 A3003 RMK AO2 T00330010
Pressure 30.03 in
Visibility 10.0 miles
Clouds Clear
Windchill 43 °F
Dew Point 41 °F
Humidity 92%
Rainfall 0.13 in
Snow Depth Not available.
7:20 AM 5:00 PM
Waxing Crescent, 37% visible
METAR KLWB 060255Z AUTO 00000KT 10SM CLR 03/01 A3003 RMK AO2 T00330010

10-Day Weather Forecast

Almanac

Astronomy

Dec. 05, 2016 Rise Set
Actual Time
Civil Twilight
Nautical Twilight
Astronomical Twilight
Moon
Length of Visible Light
Length of Day
Tomorrow will be .
, % of the Moon is Illuminated

Today's Extremes

State Highs State Lows

Community

WunderPhotos

Upload Photos

1,955,914 photos uploaded!

WunderBlog® & News

Nearby

Air Quality

  Air Quality AQ Index Pollutant
Not available.

Snow Depth

Station Depth Elevation

Earthquake Activity

City Distance Mag. Time & Date
Minimum magnitude displayed is 2.5.

Coastal Water Temperatures

Place Temperature

Stations

Nearby Weather Stations

Station Location Temp. Windchill Dew Point Humidity Wind Precip. Elev Updated Type
                   

Watches & Warnings

There are currently no watches in effect.